ADDS METAR Data INFO
IDs: Format: Raw Decoded Include TAF

Data at: 0903 UTC 20 Oct 2017

KSFQ 200855Z AUTO 00000KT 10SM CLR 08/08 A3019 RMK AO2 T00820081
KSFQ 200835Z AUTO 00000KT 10SM CLR 09/08 A3019 RMK AO2 T00850083
KSFQ 200815Z AUTO 00000KT 10SM CLR 09/08 A3019 RMK AO2 T00850084
KSFQ 200755Z AUTO 00000KT 10SM CLR 09/08 A3019 RMK AO2 T00850083
KSFQ 200735Z AUTO 00000KT 10SM CLR 08/08 A3019 RMK AO2 T00830081
KSFQ 200715Z AUTO 00000KT 10SM CLR 09/09 A3020 RMK AO2 T00900090
KSFQ 200655Z AUTO 00000KT 10SM CLR 09/09 A3020 RMK AO2 T00880087
KSFQ 200635Z AUTO 00000KT 10SM CLR 09/09 A3019 RMK AO2 T00920091
KSFQ 200615Z AUTO 00000KT 10SM CLR 10/09 A3020 RMK AO2 T00950094
KSFQ 200555Z AUTO 00000KT 10SM CLR 10/10 A3021 RMK AO2 T00990097 10154 20099
KSFQ 200535Z AUTO 00000KT 10SM CLR 10/10 A3021 RMK AO2 T01010100
KSFQ 200515Z AUTO 00000KT 10SM CLR 10/10 A3021 RMK AO2 T01020102
KSFQ 200455Z AUTO 00000KT 10SM CLR 10/10 A3021 RMK AO2 T01010101 402410068
KSFQ 200435Z AUTO 00000KT 10SM CLR 10/10 A3021 RMK AO2 T01030102
KSFQ 200415Z AUTO 00000KT 10SM CLR 11/11 A3021 RMK AO2 T01080107
KSFQ 200355Z AUTO 00000KT 10SM CLR 11/11 A3020 RMK AO2 T01110111
KSFQ 200335Z AUTO 00000KT 10SM CLR 12/11 A3020 RMK AO2 T01150114
KSFQ 200315Z AUTO 00000KT 10SM CLR 12/12 A3020 RMK AO2 T01170115
KSFQ 200255Z AUTO 00000KT 10SM CLR 12/12 A3021 RMK AO2 T01200118
KSFQ 200235Z AUTO 00000KT 10SM CLR 12/12 A3020 RMK AO2 T01220122
KSFQ 200215Z AUTO 00000KT 10SM CLR 13/12 A3020 RMK AO2 T01250123
KSFQ 200155Z AUTO 00000KT 10SM CLR 13/13 A3020 RMK AO2 T01280126
KSFQ 200135Z AUTO 00000KT 10SM CLR 13/13 A3021 RMK AO2 T01260126
KSFQ 200115Z AUTO 00000KT 10SM CLR 13/13 A3021 RMK AO2 T01310130
KSFQ 200055Z AUTO 00000KT 10SM CLR 14/14 A3020 RMK AO2 T01400140
KSFQ 200035Z AUTO 00000KT 10SM CLR 14/14 A3020 RMK AO2 T01420136
KSFQ 200015Z AUTO 00000KT 10SM CLR 14/14 A3020 RMK AO2 T01440136
KSFQ 192355Z AUTO 00000KT 10SM CLR 16/14 A3020 RMK AO2 T01550142 10241 20155
KSFQ 192335Z AUTO 00000KT 10SM CLR 16/14 A3020 RMK AO2 T01590144
KSFQ 192315Z AUTO 00000KT 10SM CLR 16/15 A3020 RMK AO2 T01620145
KSFQ 192255Z AUTO 00000KT 10SM CLR 16/15 A3020 RMK AO2 T01620145
KSFQ 192235Z AUTO 00000KT 10SM CLR 18/15 A3019 RMK AO2 T01770148
KSFQ 192215Z AUTO 00000KT 10SM CLR 19/15 A3019 RMK AO2 T01890152
KSFQ 192155Z AUTO 00000KT 10SM CLR 21/15 A3019 RMK AO2 T02140150
KSFQ 192135Z AUTO 22004KT 10SM CLR 23/13 A3019 RMK AO2 T02290128
KSFQ 192115Z AUTO 23003KT 10SM CLR 23/13 A3019 RMK AO2 T02340126
KSFQ 192055Z AUTO 25004KT 10SM CLR 24/13 A3019 RMK AO2 T02360128
KSFQ 192035Z AUTO 21005KT 10SM CLR 24/13 A3020 RMK AO2 T02380125
KSFQ 192015Z AUTO 25003KT 10SM CLR 24/12 A3020 RMK AO2 T02360120
KSFQ 191955Z AUTO 25005KT 10SM CLR 24/13 A3021 RMK AO2 T02410126
KSFQ 191935Z AUTO 22004KT 10SM CLR 24/12 A3021 RMK AO2 T02380120
KSFQ 191915Z AUTO 31005KT 10SM CLR 24/12 A3021 RMK AO2 T02360122
KSFQ 191855Z AUTO 24006KT 10SM CLR 24/13 A3022 RMK AO2 T02380130
KSFQ 191835Z AUTO 24007KT 10SM CLR 24/12 A3023 RMK AO2 T02370123
KSFQ 191815Z AUTO 26004KT 10SM CLR 24/13 A3023 RMK AO2 T02360133
KSFQ 191755Z AUTO 26004KT 10SM CLR 23/13 A3024 RMK AO2 T02310129 10231 20079
KSFQ 191735Z AUTO 26007KT 10SM SCT036 23/14 A3025 RMK AO2 T02310135
KSFQ 191715Z AUTO 26006KT 10SM CLR 22/13 A3026 RMK AO2 T02230134
KSFQ 191655Z AUTO 28004KT 10SM CLR 22/13 A3027 RMK AO2 T02240134
KSFQ 191635Z AUTO 28003KT 10SM CLR 22/13 A3028 RMK AO2 T02210134
KSFQ 191615Z AUTO 00000KT 10SM CLR 21/13 A3029 RMK AO2 T02140131
KSFQ 191555Z AUTO 23003KT 10SM CLR 21/13 A3030 RMK AO2 T02110129
KSFQ 191535Z AUTO 21004KT 10SM CLR 21/13 A3031 RMK AO2 T02100131
KSFQ 191515Z AUTO 00000KT 10SM CLR 21/13 A3031 RMK AO2 T02050126
KSFQ 191455Z AUTO 00000KT 10SM CLR 20/13 A3032 RMK AO2 T02030125
KSFQ 191435Z AUTO 00000KT 10SM CLR 19/12 A3032 RMK AO2 T01940123
KSFQ 191415Z AUTO 00000KT 10SM CLR 19/13 A3031 RMK AO2 T01860126
KSFQ 191355Z AUTO 00000KT 10SM CLR 18/14 A3031 RMK AO2 T01770139
KSFQ 191335Z AUTO 00000KT 10SM CLR 16/14 A3031 RMK AO2 T01560136
KSFQ 191315Z AUTO 00000KT 10SM CLR 15/13 A3031 RMK AO2 T01450130
KSFQ 191255Z AUTO 00000KT 10SM CLR 12/11 A3031 RMK AO2 T01190108
KSFQ 191235Z AUTO 00000KT 10SM CLR 11/10 A3031 RMK AO2 T01090096
KSFQ 191215Z AUTO 00000KT 10SM CLR 09/09 A3031 RMK AO2 T00940089
KSFQ 191155Z AUTO 00000KT 10SM CLR 08/08 A3031 RMK AO2 T00780077 10082 20068
KSFQ 191135Z AUTO 00000KT 10SM CLR 07/07 A3031 RMK AO2 T00700070
KSFQ 191115Z AUTO 00000KT 10SM CLR 07/07 A3030 RMK AO2 T00710070
KSFQ 191055Z AUTO 00000KT 10SM CLR 07/07 A3030 RMK AO2 T00740071
KSFQ 191035Z AUTO 00000KT 10SM CLR 07/07 A3031 RMK AO2 T00740074
KSFQ 191015Z AUTO 00000KT 10SM CLR 07/07 A3030 RMK AO2 T00710070
KSFQ 190955Z AUTO 00000KT 10SM CLR 07/07 A3031 RMK AO2 T00720071
KSFQ 190935Z AUTO 00000KT 10SM CLR 08/07 A3031 RMK AO2 T00750073
KSFQ 190915Z AUTO 00000KT 10SM CLR 08/07 A3030 RMK AO2 T00750073
KSFQ 190855Z AUTO 00000KT 10SM CLR 08/08 A3030 RMK AO2 T00770076
KSFQ 190835Z AUTO 00000KT 10SM CLR 08/08 A3030 RMK AO2 T00780077
KSFQ 190815Z AUTO 00000KT 10SM CLR 08/08 A3030 RMK AO2 T00770075
KSFQ 190755Z AUTO 00000KT 10SM CLR 08/08 A3030 RMK AO2 T00790079
KSFQ 190735Z AUTO 00000KT 10SM CLR 08/08 A3031 RMK AO2 T00800078
KSFQ 190715Z AUTO 00000KT 10SM CLR 08/08 A3031 RMK AO2 T00800080
KSFQ 190655Z AUTO 00000KT 10SM CLR 08/08 A3031 RMK AO2 T00800080
KSFQ 190635Z AUTO 00000KT 10SM CLR 08/08 A3031 RMK AO2 T00800080
KSFQ 190615Z AUTO 00000KT 10SM CLR 08/08 A3032 RMK AO2 T00800080
KSFQ 190555Z AUTO 00000KT 10SM CLR 08/08 A3032 RMK AO2 T00820082 10121 20081
KSFQ 190535Z AUTO 00000KT 10SM CLR 08/08 A3032 RMK AO2 T00820082
KSFQ 190515Z AUTO 00000KT 10SM CLR 09/09 A3033 RMK AO2 T00850085
KSFQ 190455Z AUTO 00000KT 10SM CLR 08/08 A3033 RMK AO2 T00840084 402130042
KSFQ 190435Z AUTO 00000KT 10SM CLR 09/09 A3033 RMK AO2 T00860086
KSFQ 190415Z AUTO 00000KT 10SM CLR 09/09 A3033 RMK AO2 T00870087
KSFQ 190355Z AUTO 00000KT 10SM CLR 09/09 A3033 RMK AO2 T00900090
KSFQ 190335Z AUTO 00000KT 10SM CLR 09/09 A3033 RMK AO2 T00910091
KSFQ 190315Z AUTO 00000KT 10SM CLR 09/09 A3034 RMK AO2 T00920092
KSFQ 190255Z AUTO 00000KT 10SM CLR 09/09 A3034 RMK AO2 T00930093
KSFQ 190235Z AUTO 00000KT 10SM CLR 10/10 A3034 RMK AO2 T00990099
KSFQ 190215Z AUTO 00000KT 10SM CLR 10/10 A3035 RMK AO2 T01020102
KSFQ 190155Z AUTO 00000KT 10SM CLR 10/10 A3034 RMK AO2 T01030102
KSFQ 190135Z AUTO 00000KT 10SM CLR 11/11 A3035 RMK AO2 T01070105
KSFQ 190115Z AUTO 00000KT 10SM CLR 11/11 A3035 RMK AO2 T01100106
KSFQ 190055Z AUTO 00000KT 10SM CLR 11/10 A3035 RMK AO2 T01090103
KSFQ 190035Z AUTO 00000KT 10SM CLR 12/11 A3035 RMK AO2 T01150107
KSFQ 190015Z AUTO 00000KT 10SM CLR 12/11 A3034 RMK AO2 T01190106
KSFQ 182355Z AUTO 00000KT 10SM CLR 12/11 A3034 RMK AO2 T01200107 10213 20120
KSFQ 182335Z AUTO 00000KT 10SM CLR 13/11 A3034 RMK AO2 T01300110
KSFQ 182315Z AUTO 00000KT 10SM CLR 14/12 A3033 RMK AO2 T01350115
KSFQ 182255Z AUTO 00000KT 10SM CLR 14/12 A3033 RMK AO2 T01380117
KSFQ 182235Z AUTO 00000KT 10SM CLR 15/12 A3033 RMK AO2 T01490115
KSFQ 182215Z AUTO 02003KT 10SM CLR 17/11 A3033 RMK AO2 T01650114
KSFQ 182155Z AUTO 00000KT 10SM CLR 18/11 A3033 RMK AO2 T01810112
KSFQ 182135Z AUTO 02004KT 10SM CLR 19/11 A3032 RMK AO2 T01910107
KSFQ 182115Z AUTO 03003KT 10SM CLR 20/10 A3033 RMK AO2 T02010100